Time;durP1;ratioP1;P1;durP2;ratioP2;P2;SDS_P1;SDS_P2;PMS_P1;PMS_P2;Temp;Humidity;BMP_temperature;BMP_pressure;BME280_temperature;BME280_humidity;BME280_pressure;Samples;Min_cycle;Max_cycle;Signal;HPM_P1;HPM_P2
2022/04/28 00:01:49;;;;;;;23.83;19.25;;;;;;;;;;4954295;29;20024;-69
2022/04/28 00:04:15;;;;;;;23.88;18.77;;;;;;;;;;4953505;28;20078;-70
2022/04/28 00:06:41;;;;;;;22.08;17.52;;;;;;;;;;4953327;29;20035;-70
2022/04/28 00:09:07;;;;;;;25.02;18.65;;;;;;;;;;4953454;29;20416;-69
2022/04/28 00:11:34;;;;;;;23.98;17.92;;;;;;;;;;4953702;29;20023;-68
2022/04/28 00:14:00;;;;;;;25.38;18.58;;;;;;;;;;4953247;29;20466;-68
2022/04/28 00:16:26;;;;;;;24.75;19.42;;;;;;;;;;4954830;29;20454;-68
2022/04/28 00:18:53;;;;;;;26.58;19.25;;;;;;;;;;4937522;29;20027;-67
2022/04/28 00:21:19;;;;;;;24.20;18.08;;;;;;;;;;4954868;29;20027;-68
2022/04/28 00:23:45;;;;;;;26.77;18.83;;;;;;;;;;4937578;29;20480;-67
2022/04/28 00:26:12;;;;;;;23.85;17.83;;;;;;;;;;4966692;28;20026;-66
2022/04/28 00:28:38;;;;;;;21.92;16.77;;;;;;;;;;4973890;28;20511;-70
2022/04/28 00:31:04;;;;;;;21.42;17.55;;;;;;;;;;4972490;28;20043;-66
2022/04/28 00:33:30;;;;;;;21.25;16.42;;;;;;;;;;4973147;28;20042;-67
2022/04/28 00:35:57;;;;;;;22.17;17.00;;;;;;;;;;4956864;28;20415;-69
2022/04/28 00:38:23;;;;;;;28.52;17.73;;;;;;;;;;4973668;28;20033;-69
2022/04/28 00:40:49;;;;;;;19.77;16.35;;;;;;;;;;4956610;28;20509;-68
2022/04/28 00:43:18;;;;;;;20.48;16.55;;;;;;;;;;4956573;28;20024;-70
2022/04/28 00:45:44;;;;;;;22.23;17.17;;;;;;;;;;4973893;28;20055;-66
2022/04/28 00:50:57;;;;;;;21.85;15.73;;;;;;;;;;4973845;28;20038;-67
2022/04/28 00:53:25;;;;;;;20.90;16.23;;;;;;;;;;4973746;28;20412;-67
2022/04/28 00:55:51;;;;;;;16.92;14.55;;;;;;;;;;4974052;28;20035;-67
2022/04/28 00:58:17;;;;;;;21.20;15.40;;;;;;;;;;4973471;28;20461;-68
2022/04/28 01:00:44;;;;;;;20.83;16.30;;;;;;;;;;4956428;28;20086;-68
2022/04/28 01:03:11;;;;;;;19.73;14.75;;;;;;;;;;4973699;28;20042;-68
2022/04/28 01:05:38;;;;;;;20.75;16.92;;;;;;;;;;4973742;28;20353;-67
2022/04/28 01:08:04;;;;;;;19.08;16.27;;;;;;;;;;4973685;28;20066;-67
2022/04/28 01:10:30;;;;;;;22.33;16.73;;;;;;;;;;4956375;28;20479;-68
2022/04/28 01:12:57;;;;;;;18.00;14.25;;;;;;;;;;4957098;28;20089;-69
2022/04/28 01:15:23;;;;;;;28.13;15.73;;;;;;;;;;4977111;28;20023;-69
2022/04/28 01:17:49;;;;;;;17.00;14.38;;;;;;;;;;4977383;28;20031;-66
2022/04/28 01:20:15;;;;;;;17.08;13.95;;;;;;;;;;4976986;28;20081;-67
2022/04/28 01:22:42;;;;;;;18.35;14.20;;;;;;;;;;4959618;28;20117;-68
2022/04/28 01:25:09;;;;;;;19.75;14.02;;;;;;;;;;4976921;28;20023;-67
2022/04/28 01:27:36;;;;;;;19.90;15.57;;;;;;;;;;4959517;28;20502;-66
2022/04/28 01:30:12;;;;;;;20.67;14.70;;;;;;;;;;4976857;28;20035;-68
2022/04/28 01:32:39;;;;;;;19.13;14.32;;;;;;;;;;4976326;28;20054;-67
2022/04/28 01:35:05;;;;;;;22.15;15.30;;;;;;;;;;4976813;28;20030;-68
2022/04/28 01:37:32;;;;;;;21.55;14.90;;;;;;;;;;4976761;28;20062;-66
2022/04/28 01:39:58;;;;;;;19.35;15.20;;;;;;;;;;4976635;28;20437;-68
2022/04/28 01:42:25;;;;;;;20.90;15.68;;;;;;;;;;4959330;28;20035;-68
2022/04/28 01:44:51;;;;;;;21.50;14.98;;;;;;;;;;4959153;28;20066;-68
2022/04/28 01:47:18;;;;;;;17.05;14.30;;;;;;;;;;4976538;28;20031;-66
2022/04/28 01:49:44;;;;;;;20.42;15.30;;;;;;;;;;4976716;28;20035;-67
2022/04/28 01:54:58;;;;;;;18.92;14.88;;;;;;;;;;4976437;28;20042;-69
2022/04/28 01:57:26;;;;;;;17.75;15.38;;;;;;;;;;4958956;28;20485;-69
2022/04/28 01:59:52;;;;;;;19.73;14.93;;;;;;;;;;4958881;28;20511;-68
2022/04/28 02:02:18;;;;;;;22.98;15.45;;;;;;;;;;4976288;28;20035;-68
2022/04/28 02:04:47;;;;;;;23.50;15.55;;;;;;;;;;4976237;28;20019;-66
2022/04/28 02:07:13;;;;;;;19.02;14.63;;;;;;;;;;4958866;28;20070;-70
2022/04/28 02:09:43;;;;;;;19.20;15.40;;;;;;;;;;4958775;28;20395;-71
2022/04/28 02:12:10;;;;;;;21.92;15.40;;;;;;;;;;4976037;28;20070;-70
2022/04/28 02:14:37;;;;;;;23.05;15.98;;;;;;;;;;4958593;28;20472;-70
2022/04/28 02:17:04;;;;;;;20.08;15.00;;;;;;;;;;4958591;28;20031;-72
2022/04/28 02:19:31;;;;;;;21.42;16.40;;;;;;;;;;4958577;28;20031;-71
2022/04/28 02:21:58;;;;;;;20.15;15.57;;;;;;;;;;4975935;28;20109;-71
2022/04/28 02:24:24;;;;;;;21.60;15.93;;;;;;;;;;4974789;28;20041;-71
2022/04/28 02:26:51;;;;;;;21.33;16.38;;;;;;;;;;4975853;28;20110;-70
2022/04/28 02:29:17;;;;;;;23.65;15.35;;;;;;;;;;4958341;28;20117;-72
2022/04/28 02:31:44;;;;;;;18.90;15.23;;;;;;;;;;4975375;28;20051;-73
2022/04/28 02:34:11;;;;;;;26.60;16.50;;;;;;;;;;4958209;28;20038;-72
2022/04/28 02:36:37;;;;;;;21.60;17.40;;;;;;;;;;4975879;28;20030;-72
2022/04/28 02:39:04;;;;;;;23.83;15.70;;;;;;;;;;4975880;28;20073;-73
2022/04/28 02:41:30;;;;;;;22.40;17.08;;;;;;;;;;4975548;28;20054;-71
2022/04/28 02:43:56;;;;;;;21.95;16.85;;;;;;;;;;4958158;28;20455;-72
2022/04/28 02:46:23;;;;;;;23.73;16.73;;;;;;;;;;4975445;28;20113;-71
2022/04/28 02:48:52;;;;;;;24.42;17.08;;;;;;;;;;4958052;28;20030;-72
2022/04/28 02:51:19;;;;;;;21.55;16.20;;;;;;;;;;4975360;28;20031;-71
2022/04/28 02:53:45;;;;;;;22.88;17.95;;;;;;;;;;4975229;28;20034;-72
2022/04/28 02:56:11;;;;;;;23.73;16.55;;;;;;;;;;4957891;28;20035;-72
2022/04/28 02:58:38;;;;;;;22.35;15.75;;;;;;;;;;4975230;28;20486;-72
2022/04/28 03:01:04;;;;;;;22.52;17.38;;;;;;;;;;4974908;28;20041;-72
2022/04/28 03:03:31;;;;;;;21.25;15.70;;;;;;;;;;4957723;28;20037;-72
2022/04/28 03:11:27;;;;;;;25.27;16.80;;;;;;;;;;4975023;28;20038;-71
2022/04/28 03:13:54;;;;;;;21.73;17.27;;;;;;;;;;4974910;28;20035;-71
2022/04/28 03:16:20;;;;;;;21.88;16.50;;;;;;;;;;4974882;28;20038;-71
2022/04/28 03:18:46;;;;;;;21.23;16.52;;;;;;;;;;4974898;28;20480;-71
2022/04/28 03:21:13;;;;;;;23.30;17.08;;;;;;;;;;4974830;28;20385;-70
2022/04/28 03:23:39;;;;;;;22.25;16.33;;;;;;;;;;4957720;28;20391;-68
2022/04/28 03:26:05;;;;;;;23.58;17.50;;;;;;;;;;4974771;28;20031;-70
2022/04/28 03:28:34;;;;;;;20.65;14.73;;;;;;;;;;4974746;28;20030;-70
2022/04/28 03:31:01;;;;;;;20.05;16.10;;;;;;;;;;4974429;28;20055;-69
2022/04/28 03:33:27;;;;;;;19.25;14.80;;;;;;;;;;4957179;28;20035;-69
2022/04/28 03:35:54;;;;;;;17.63;14.98;;;;;;;;;;4974243;28;20027;-65
2022/04/28 03:38:20;;;;;;;18.23;14.40;;;;;;;;;;4974594;28;20031;-65
2022/04/28 03:40:46;;;;;;;18.42;13.52;;;;;;;;;;4974568;28;20023;-67
2022/04/28 03:43:13;;;;;;;19.38;14.55;;;;;;;;;;4957231;28;20089;-65
2022/04/28 03:45:39;;;;;;;17.35;14.50;;;;;;;;;;4957085;28;20031;-66
2022/04/28 03:48:09;;;;;;;20.77;15.10;;;;;;;;;;4974403;28;20035;-65
2022/04/28 03:50:36;;;;;;;26.08;14.80;;;;;;;;;;4957371;28;20383;-64
2022/04/28 03:53:02;;;;;;;20.42;15.70;;;;;;;;;;4974064;28;20373;-64
2022/04/28 03:55:28;;;;;;;19.35;15.43;;;;;;;;;;4974349;28;20023;-65
2022/04/28 03:57:55;;;;;;;23.38;15.85;;;;;;;;;;4974358;28;20027;-66
2022/04/28 04:00:22;;;;;;;19.58;15.38;;;;;;;;;;4974288;28;20023;-64
2022/04/28 04:02:49;;;;;;;19.30;15.05;;;;;;;;;;4974335;28;20147;-64
2022/04/28 04:05:15;;;;;;;18.70;14.52;;;;;;;;;;4974277;28;20357;-65
2022/04/28 04:07:43;;;;;;;18.27;15.50;;;;;;;;;;4973926;28;20376;-65
2022/04/28 04:10:13;;;;;;;24.40;15.40;;;;;;;;;;4956815;28;20027;-63
2022/04/28 04:12:40;;;;;;;20.08;14.52;;;;;;;;;;4974177;28;20125;-64
2022/04/28 04:15:06;;;;;;;18.42;14.45;;;;;;;;;;4956741;28;20062;-65
2022/04/28 04:17:40;;;;;;;20.83;16.27;;;;;;;;;;4956776;28;20048;-64
2022/04/28 04:20:07;;;;;;;19.15;14.38;;;;;;;;;;4974476;28;20486;-64
2022/04/28 04:22:34;;;;;;;25.55;15.80;;;;;;;;;;4974130;28;20038;-64
2022/04/28 04:25:01;;;;;;;20.50;16.17;;;;;;;;;;4974401;28;20110;-64
2022/04/28 04:27:27;;;;;;;23.52;16.70;;;;;;;;;;4974070;28;20034;-65
2022/04/28 04:29:54;;;;;;;20.60;15.00;;;;;;;;;;4956724;28;20042;-64
2022/04/28 04:32:26;;;;;;;22.48;15.10;;;;;;;;;;4973604;28;20054;-64
2022/04/28 04:34:53;;;;;;;21.38;15.52;;;;;;;;;;4974072;28;20034;-67
2022/04/28 04:37:19;;;;;;;20.02;15.40;;;;;;;;;;4973943;28;20464;-68
2022/04/28 04:39:46;;;;;;;21.83;15.27;;;;;;;;;;4973973;28;20023;-66
2022/04/28 04:42:12;;;;;;;18.75;14.82;;;;;;;;;;4956250;28;20026;-68
2022/04/28 04:44:38;;;;;;;19.30;14.95;;;;;;;;;;4973578;28;20388;-67
2022/04/28 04:47:05;;;;;;;18.27;14.10;;;;;;;;;;4974190;28;20035;-68
2022/04/28 04:49:31;;;;;;;19.30;15.05;;;;;;;;;;4977241;28;20459;-68
2022/04/28 04:51:57;;;;;;;18.50;14.45;;;;;;;;;;4960152;28;20167;-66
2022/04/28 04:54:23;;;;;;;21.20;16.23;;;;;;;;;;4977488;28;20039;-66
2022/04/28 04:56:50;;;;;;;21.55;14.80;;;;;;;;;;4960072;28;20050;-67
2022/04/28 04:59:16;;;;;;;18.70;14.07;;;;;;;;;;4977427;28;20464;-67
2022/04/28 05:01:42;;;;;;;20.50;14.00;;;;;;;;;;4977329;28;20082;-67
2022/04/28 05:04:08;;;;;;;17.17;14.00;;;;;;;;;;4959947;28;20031;-67
2022/04/28 05:06:34;;;;;;;17.67;14.15;;;;;;;;;;4959894;28;20034;-67
2022/04/28 05:09:01;;;;;;;21.48;15.23;;;;;;;;;;4977286;28;20053;-68
2022/04/28 05:11:27;;;;;;;22.52;15.55;;;;;;;;;;4959825;28;20117;-69
2022/04/28 05:13:53;;;;;;;17.58;14.65;;;;;;;;;;4976890;28;20043;-68
2022/04/28 05:16:19;;;;;;;19.60;13.80;;;;;;;;;;4977052;28;20114;-67
2022/04/28 05:18:45;;;;;;;22.33;14.75;;;;;;;;;;4977277;28;20153;-67
2022/04/28 05:21:11;;;;;;;26.38;14.98;;;;;;;;;;4976521;28;20031;-66
2022/04/28 05:23:38;;;;;;;19.60;14.40;;;;;;;;;;4977049;28;20033;-65
2022/04/28 05:26:04;;;;;;;21.48;14.27;;;;;;;;;;4976906;28;20547;-67
2022/04/28 05:28:30;;;;;;;18.13;14.63;;;;;;;;;;4959376;28;20037;-66
2022/04/28 05:30:56;;;;;;;17.15;14.52;;;;;;;;;;4976455;28;20038;-67
2022/04/28 05:33:23;;;;;;;22.85;15.48;;;;;;;;;;4976630;28;20118;-67
2022/04/28 05:35:50;;;;;;;21.13;14.55;;;;;;;;;;4959305;28;20481;-66
2022/04/28 05:38:16;;;;;;;18.67;13.90;;;;;;;;;;4976627;28;20031;-69
2022/04/28 05:40:42;;;;;;;19.58;14.65;;;;;;;;;;4959159;28;20030;-67
2022/04/28 05:45:55;;;;;;;20.95;15.15;;;;;;;;;;4976323;28;20186;-68
2022/04/28 05:48:21;;;;;;;18.90;12.85;;;;;;;;;;4976792;28;20357;-65
2022/04/28 05:50:48;;;;;;;22.58;14.80;;;;;;;;;;4976506;28;20023;-65
2022/04/28 05:53:14;;;;;;;18.55;14.18;;;;;;;;;;4976394;28;20042;-67
2022/04/28 05:55:41;;;;;;;18.30;13.95;;;;;;;;;;4958813;28;20027;-67
2022/04/28 05:58:07;;;;;;;17.50;13.82;;;;;;;;;;4976257;28;20038;-65
2022/04/28 06:00:34;;;;;;;22.73;15.27;;;;;;;;;;4976053;28;20023;-64
2022/04/28 06:03:00;;;;;;;22.08;15.32;;;;;;;;;;4976295;28;20384;-63
2022/04/28 06:05:27;;;;;;;19.20;14.80;;;;;;;;;;4976202;28;20097;-64
2022/04/28 06:07:53;;;;;;;21.35;15.20;;;;;;;;;;4976176;28;20027;-65
2022/04/28 06:10:20;;;;;;;21.80;15.55;;;;;;;;;;4976178;28;20058;-65
2022/04/28 06:12:46;;;;;;;22.73;15.93;;;;;;;;;;4976079;28;20126;-65
2022/04/28 06:15:16;;;;;;;20.75;15.10;;;;;;;;;;4975994;28;20493;-66
2022/04/28 06:17:42;;;;;;;20.90;15.38;;;;;;;;;;4958510;28;20161;-63
2022/04/28 06:20:08;;;;;;;25.67;15.70;;;;;;;;;;4976050;28;20555;-64
2022/04/28 06:22:37;;;;;;;18.38;15.00;;;;;;;;;;4975795;28;20034;-67
2022/04/28 06:25:03;;;;;;;20.98;15.88;;;;;;;;;;4958377;28;20027;-66
2022/04/28 06:27:30;;;;;;;19.80;15.15;;;;;;;;;;4958352;28;20030;-65
2022/04/28 06:29:56;;;;;;;23.27;16.52;;;;;;;;;;4975738;28;20117;-64
2022/04/28 06:32:22;;;;;;;23.38;17.48;;;;;;;;;;4957775;28;20046;-66
2022/04/28 06:34:49;;;;;;;21.02;15.57;;;;;;;;;;4975638;28;20034;-67
2022/04/28 06:37:15;;;;;;;20.90;15.55;;;;;;;;;;4975582;28;20022;-65
2022/04/28 06:39:42;;;;;;;25.05;15.55;;;;;;;;;;4975538;28;20038;-65
2022/04/28 06:42:08;;;;;;;21.38;15.40;;;;;;;;;;4958135;28;20460;-64
2022/04/28 06:44:36;;;;;;;23.65;16.95;;;;;;;;;;4975326;28;20468;-67
2022/04/28 06:47:02;;;;;;;21.55;15.43;;;;;;;;;;4958083;28;20019;-73
2022/04/28 06:49:28;;;;;;;17.40;14.60;;;;;;;;;;4951131;29;20016;-71
2022/04/28 06:51:54;;;;;;;25.17;16.45;;;;;;;;;;4938486;29;20059;-72
2022/04/28 06:54:21;;;;;;;19.05;15.35;;;;;;;;;;4955772;29;20484;-68
2022/04/28 06:56:47;;;;;;;22.02;15.15;;;;;;;;;;4955787;28;20031;-66
2022/04/28 06:59:13;;;;;;;23.50;16.40;;;;;;;;;;4938484;29;20429;-67
2022/04/28 07:01:40;;;;;;;26.38;17.10;;;;;;;;;;4938463;29;20054;-70
2022/04/28 07:04:06;;;;;;;30.80;17.77;;;;;;;;;;4955655;29;20039;-69
2022/04/28 07:06:32;;;;;;;22.17;16.60;;;;;;;;;;4938371;29;20034;-69
2022/04/28 07:08:59;;;;;;;26.23;18.05;;;;;;;;;;4955551;29;20528;-69
2022/04/28 07:11:25;;;;;;;24.20;16.48;;;;;;;;;;4937659;29;20086;-70
2022/04/28 07:13:52;;;;;;;20.88;15.38;;;;;;;;;;4955532;29;20602;-69
2022/04/28 07:16:18;;;;;;;23.60;15.65;;;;;;;;;;4955469;29;20035;-66
2022/04/28 07:18:45;;;;;;;22.98;15.23;;;;;;;;;;4955244;29;20022;-72
2022/04/28 07:21:11;;;;;;;21.50;16.77;;;;;;;;;;4938103;29;20460;-69
2022/04/28 07:23:38;;;;;;;19.70;16.02;;;;;;;;;;4955671;29;20035;-69
2022/04/28 07:26:04;;;;;;;21.17;15.75;;;;;;;;;;4955305;29;20030;-68
2022/04/28 07:28:31;;;;;;;24.48;18.08;;;;;;;;;;4937997;29;20034;-68
2022/04/28 07:30:57;;;;;;;17.33;14.65;;;;;;;;;;4955055;29;20089;-70
2022/04/28 07:33:23;;;;;;;20.95;16.05;;;;;;;;;;4955083;28;20034;-69
2022/04/28 07:35:49;;;;;;;18.35;14.60;;;13.10;99.90;;;;;;4937466;29;20020;-70
2022/04/28 07:38:15;;;;;;;19.70;15.45;;;13.20;99.90;;;;;;4955127;29;20033;-76
2022/04/28 07:40:40;;;;;;;19.92;15.65;;;13.20;99.90;;;;;;4937839;29;20122;-68
2022/04/28 07:43:06;;;;;;;21.20;15.38;;;13.00;99.90;;;;;;4955115;29;20039;-68
2022/04/28 07:45:32;;;;;;;19.48;15.50;;;12.90;99.90;;;;;;4937751;29;20029;-70
2022/04/28 07:47:58;;;;;;;26.70;17.50;;;12.90;99.90;;;;;;4955017;29;20027;-68
2022/04/28 07:50:24;;;;;;;18.25;14.98;;;13.00;99.90;;;;;;4954982;29;20055;-67
2022/04/28 07:52:50;;;;;;;21.52;16.30;;;13.00;99.90;;;;;;4954756;29;20046;-68
2022/04/28 07:55:16;;;;;;;20.75;16.27;;;13.10;99.90;;;;;;4954980;29;20027;-68
2022/04/28 07:57:42;;;;;;;22.35;16.05;;;13.10;99.90;;;;;;4954493;29;20027;-67
2022/04/28 08:00:09;;;;;;;20.35;15.88;;;13.00;99.90;;;;;;4954878;29;20038;-68
2022/04/28 08:02:38;;;;;;;31.50;15.45;;;13.00;99.90;;;;;;4954209;29;20035;-68
2022/04/28 08:05:06;;;;;;;24.55;15.82;;;13.00;99.90;;;;;;4954461;29;20031;-67
2022/04/28 08:07:33;;;;;;;22.95;15.55;;;13.20;99.90;;;;;;4954154;29;20058;-67
2022/04/28 08:09:59;;;;;;;18.55;15.05;;;13.30;99.90;;;;;;4937173;29;20035;-67
2022/04/28 08:12:25;;;;;;;23.42;16.33;;;13.30;99.90;;;;;;4954734;29;20380;-68
2022/04/28 08:14:50;;;;;;;22.05;14.70;;;13.40;99.90;;;;;;4954542;29;20023;-67
2022/04/28 08:17:16;;;;;;;22.15;15.68;;;13.40;99.90;;;;;;4954983;29;20031;-68
2022/04/28 08:19:42;;;;;;;22.80;15.63;;;13.30;99.90;;;;;;4937318;29;20046;-68
2022/04/28 08:22:08;;;;;;;20.88;16.92;;;13.30;99.90;;;;;;4955649;28;20035;-67
2022/04/28 08:24:35;;;;;;;17.20;13.23;;;13.40;99.90;;;;;;4958561;29;20109;-66
2022/04/28 08:27:01;;;;;;;18.58;14.25;;;13.20;99.90;;;;;;4958495;29;20020;-69
2022/04/28 08:29:27;;;;;;;18.40;13.95;;;13.20;99.90;;;;;;4958517;29;20381;-69
2022/04/28 08:31:53;;;;;;;24.50;15.32;;;13.20;99.90;;;;;;4940645;29;20055;-64
2022/04/28 08:34:19;;;;;;;21.45;15.23;;;13.20;99.90;;;;;;4958414;29;20494;-66
2022/04/28 08:36:46;;;;;;;17.15;14.07;;;13.10;99.90;;;;;;4958349;29;20027;-67
2022/04/28 08:39:11;;;;;;;19.33;17.10;;;13.00;99.90;;;;;;4958326;29;20028;-69
2022/04/28 08:41:45;;;;;;;20.92;14.25;;;13.00;99.90;;;;;;4958013;29;20078;-67
2022/04/28 08:44:25;;;;;;;21.48;14.95;;;13.00;99.90;;;;;;4958329;29;20043;-65
2022/04/28 08:46:53;;;;;;;22.25;15.77;;;13.10;99.90;;;;;;4957835;29;20026;-64
2022/04/28 08:49:25;;;;;;;22.60;16.75;;;13.20;99.90;;;;;;4957906;29;20388;-67
2022/04/28 08:51:52;;;;;;;25.70;16.65;;;13.10;99.90;;;;;;4958174;29;20026;-64
2022/04/28 08:54:19;;;;;;;37.47;19.75;;;13.10;99.90;;;;;;4940729;29;20039;-67
2022/04/28 08:56:45;;;;;;;31.45;17.27;;;13.10;99.90;;;;;;4957940;29;20476;-64
2022/04/28 08:59:13;;;;;;;30.50;17.13;;;12.90;99.90;;;;;;4957979;29;20030;-65
2022/04/28 09:01:39;;;;;;;24.27;16.50;;;12.90;99.90;;;;;;4956696;28;20096;-66
2022/04/28 09:04:05;;;;;;;28.00;18.15;;;12.80;99.90;;;;;;4972478;28;20499;-65
2022/04/28 09:06:36;;;;;;;28.20;18.63;;;;;;;;;;4976988;28;20110;-66
2022/04/28 09:09:06;;;;;;;22.15;15.30;;;;;;;;;;4976549;28;20388;-67
2022/04/28 09:11:35;;;;;;;23.08;15.63;;;;;;;;;;4976898;28;20023;-65
2022/04/28 09:14:15;;;;;;;23.00;16.88;;;;;;;;;;4959236;28;20042;-65
2022/04/28 09:16:42;;;;;;;23.80;17.10;;;;;;;;;;4976827;28;20027;-65
2022/04/28 09:19:10;;;;;;;21.02;15.95;;;;;;;;;;4959385;28;20023;-64
2022/04/28 09:21:36;;;;;;;25.50;18.92;;;;;;;;;;4976772;28;20027;-67
2022/04/28 09:24:04;;;;;;;23.13;17.88;;;;;;;;;;4976539;28;20023;-66
2022/04/28 09:26:32;;;;;;;31.80;21.45;;;;;;;;;;4959251;28;20388;-64
2022/04/28 09:29:02;;;;;;;27.88;20.33;;;;;;;;;;4976462;28;20111;-65
2022/04/28 09:31:29;;;;;;;57.05;29.60;;;;;;;;;;4976450;28;20057;-65
2022/04/28 09:33:56;;;;;;;44.10;25.63;;;;;;;;;;4975948;28;20027;-65
2022/04/28 09:36:22;;;;;;;34.83;20.88;;;;;;;;;;4959254;28;20027;-64
2022/04/28 09:38:54;;;;;;;24.92;17.30;;;;;;;;;;4976193;28;20033;-64
2022/04/28 09:44:05;;;;;;;29.63;19.45;;;;;;;;;;4976263;28;20037;-64
2022/04/28 09:46:32;;;;;;;34.58;23.10;;;;;;;;;;4976241;28;20022;-64
2022/04/28 09:48:58;;;;;;;36.95;26.10;;;;;;;;;;4976332;28;20022;-65
2022/04/28 09:51:25;;;;;;;26.98;19.10;;;;;;;;;;4958968;28;20068;-65
2022/04/28 09:53:51;;;;;;;26.27;19.45;;;;;;;;;;4976218;28;20022;-65
2022/04/28 09:56:20;;;;;;;31.98;20.70;;;;;;;;;;4975967;28;20357;-65
2022/04/28 09:58:46;;;;;;;29.38;19.25;;;;;;;;;;4976097;28;20106;-64
2022/04/28 10:01:12;;;;;;;31.50;22.40;;;;;;;;;;4976435;28;20034;-65
2022/04/28 10:03:40;;;;;;;32.28;20.50;;;;;;;;;;4941069;29;20385;-65
2022/04/28 10:06:06;;;;;;;27.63;19.33;;;;;;;;;;4955758;29;20027;-65
2022/04/28 10:08:33;;;;;;;23.00;17.02;;;;;;;;;;4956465;29;20032;-64
2022/04/28 10:11:00;;;;;;;26.45;18.70;;;;;;;;;;4956630;29;20464;-64
2022/04/28 10:13:28;;;;;;;29.08;21.23;;;;;;;;;;4956483;29;20110;-65
2022/04/28 10:16:12;;;;;;;26.92;19.45;;;12.90;99.90;;;;;;4939510;29;20118;-65
2022/04/28 10:18:58;;;;;;;27.67;18.70;;;13.00;99.90;;;;;;4939281;29;20033;-66
2022/04/28 10:21:31;;;;;;;30.85;20.35;;;13.10;99.90;;;;;;4946105;29;20043;-63
2022/04/28 10:32:56;;;;;;;23.20;17.60;;;13.20;99.90;;;;;;4955694;29;20087;-67
2022/04/28 10:35:41;;;;;;;28.83;19.00;;;13.00;99.90;;;;;;4956212;29;20039;-71
2022/04/28 10:38:31;;;;;;;27.33;18.80;;;13.00;99.90;;;;;;4938795;29;20078;-69
2022/04/28 10:41:10;;;;;;;28.73;20.27;;;13.00;99.90;;;;;;4955801;29;20082;-67
2022/04/28 10:43:40;;;;;;;24.95;19.25;;;13.00;99.90;;;;;;4953752;29;20046;-67
2022/04/28 10:46:09;;;;;;;26.08;18.60;;;13.00;99.90;;;;;;4937979;29;20031;-67
2022/04/28 10:48:42;;;;;;;27.42;18.33;;;13.20;99.90;;;;;;4938819;29;20094;-68
2022/04/28 10:51:13;;;;;;;22.90;18.42;;;13.30;99.90;;;;;;4956077;29;20023;-67
2022/04/28 10:54:07;;;;;;;29.67;19.23;;;13.30;99.90;;;;;;4955910;29;20094;-67
2022/04/28 10:56:42;;;;;;;30.90;17.65;;;13.30;99.90;;;;;;4938742;29;20456;-69
2022/04/28 10:59:32;;;;;;;27.55;17.73;;;13.20;99.90;;;;;;4955822;29;20054;-68
2022/04/28 11:02:15;;;;;;;25.48;18.00;;;13.20;99.90;;;;;;4955919;29;20041;-66
2022/04/28 11:04:43;;;;;;;23.45;16.30;;;13.30;99.90;;;;;;4953581;28;20574;-66
2022/04/28 11:07:15;;;;;;;26.83;18.02;;;13.20;99.90;;;;;;4954571;28;20027;-66
2022/04/28 11:09:43;;;;;;;26.80;18.52;;;13.20;99.90;;;;;;4974491;28;20369;-64
2022/04/28 11:12:19;;;;;;;24.80;18.60;;;13.10;99.90;;;;;;4974968;28;20034;-65
2022/04/28 11:14:52;;;;;;;23.27;19.20;;;13.00;99.90;;;;;;4975070;28;20035;-67
2022/04/28 11:27:53;;;;;;;28.08;21.00;;;;;;;;;;5108676;27;20885;-69
2022/04/28 11:30:21;;;;;;;35.58;23.88;;;;;;;;;;5110090;28;20066;-69
2022/04/28 11:32:52;;;;;;;31.65;22.25;;;;;;;;;;5109740;28;20023;-69
2022/04/28 11:35:18;;;;;;;28.92;20.95;;;;;;;;;;5109894;28;20028;-69
2022/04/28 11:37:45;;;;;;;29.77;21.27;;;;;;;;;;5109721;28;20024;-69
2022/04/28 11:40:16;;;;;;;27.48;20.00;;;;;;;;;;5110829;28;20024;-70
2022/04/28 11:42:43;;;;;;;35.33;25.23;;;;;;;;;;5110907;28;20020;-69
2022/04/28 11:45:09;;;;;;;134.73;83.30;;;13.20;99.90;;;;;;5111406;28;20026;-70
2022/04/28 11:47:45;;;;;;;36.85;25.30;;;13.20;99.90;;;;;;5111456;28;20089;-70
2022/04/28 11:50:20;;;;;;;38.80;26.30;;;13.50;99.90;;;;;;5110429;28;20024;-71
2022/04/28 11:52:56;;;;;;;29.35;18.45;;;13.70;99.90;;;;;;5110267;28;20034;-70
2022/04/28 11:55:25;;;;;;;28.20;17.05;;;13.80;99.90;;;;;;5110391;28;20397;-70
2022/04/28 11:57:51;;;;;;;32.80;17.67;;;14.00;99.90;;;;;;5110170;28;20425;-69
2022/04/28 12:00:17;;;;;;;23.58;16.70;;;14.10;99.90;;;;;;5108842;28;20046;-71
2022/04/28 12:02:44;;;;;;;31.48;19.50;;;14.30;99.90;;;;;;5110117;28;20024;-70
2022/04/28 12:05:19;;;;;;;23.95;17.25;;;14.30;99.90;;;;;;5109941;28;20023;-71
2022/04/28 12:07:52;;;;;;;23.60;17.92;;;14.20;99.90;;;;;;5108357;28;20031;-71
2022/04/28 12:15:56;;;;;;;26.83;18.38;;;14.10;99.90;;;;;;5109615;28;20370;-70
2022/04/28 12:21:21;;;;;;;26.63;18.52;;;13.70;99.90;;;;;;5109827;28;20120;-71
2022/04/28 12:23:51;;;;;;;21.58;15.93;;;13.60;99.90;;;;;;5110021;28;20035;-70
2022/04/28 12:26:24;;;;;;;23.95;16.70;;;13.40;99.90;;;;;;5109241;28;20056;-69
2022/04/28 12:28:50;;;;;;;26.45;17.13;;;13.40;99.90;;;;;;5095952;28;20113;-69
2022/04/28 12:31:27;;;;;;;24.27;17.23;;;13.40;99.90;;;;;;5095979;28;20058;-71
2022/04/28 12:33:54;;;;;;;26.95;18.25;;;13.50;99.90;;;;;;5096045;28;20131;-69
2022/04/28 12:36:20;;;;;;;25.70;18.95;;;13.50;99.90;;;;;;5095988;28;20024;-71
2022/04/28 12:38:49;;;;;;;27.27;18.88;;;13.60;99.90;;;;;;5096120;28;20459;-69
2022/04/28 12:41:27;;;;;;;25.38;16.38;;;13.60;99.90;;;;;;5095853;28;20486;-71
2022/04/28 12:44:00;;;;;;;24.33;17.38;;;13.50;99.90;;;;;;5095792;28;20035;-71
2022/04/28 12:46:29;;;;;;;23.52;18.33;;;13.50;99.90;;;;;;5094086;28;20032;-70
2022/04/28 12:48:56;;;;;;;22.45;17.17;;;13.50;99.90;;;;;;5095653;28;20128;-71
2022/04/28 12:51:23;;;;;;;28.85;19.65;;;13.50;99.90;;;;;;5095617;28;20031;-71
2022/04/28 12:53:55;;;;;;;25.67;18.55;;;13.70;99.90;;;;;;5094213;28;20375;-70
2022/04/28 12:56:30;;;;;;;27.88;18.02;;;13.90;99.90;;;;;;5095497;28;20376;-70
2022/04/28 12:59:02;;;;;;;22.58;16.20;;;13.90;99.90;;;;;;5093754;28;20081;-70
2022/04/28 13:01:28;;;;;;;;;;;13.70;99.90;;;;;;5096155;28;20471;-70
2022/04/28 13:04:00;;;;;;;22.40;15.88;;;13.70;99.90;;;;;;5095110;28;19956;-70
2022/04/28 13:06:28;;;;;;;26.10;17.75;;;13.60;99.90;;;;;;5095273;28;20032;-70
2022/04/28 13:08:55;;;;;;;22.50;17.48;;;13.50;99.90;;;;;;5094876;28;20472;-71
2022/04/28 13:11:26;;;;;;;27.67;18.60;;;13.40;99.90;;;;;;5093918;28;20028;-70
2022/04/28 13:13:53;;;;;;;28.20;17.77;;;13.40;99.90;;;;;;5095225;28;20345;-70
2022/04/28 13:16:20;;;;;;;25.45;18.80;;;13.30;99.90;;;;;;5095157;28;20032;-70
2022/04/28 13:18:47;;;;;;;36.38;19.27;;;13.30;99.90;;;;;;5095114;28;20028;-70
2022/04/28 13:21:15;;;;;;;28.02;18.67;;;13.20;99.90;;;;;;5095045;28;20034;-69
2022/04/28 13:23:41;;;;;;;31.48;21.38;;;13.20;99.90;;;;;;5094948;28;20020;-69
2022/04/28 13:26:08;;;;;;;29.10;18.88;;;13.30;99.90;;;;;;5093376;28;20488;-70
2022/04/28 13:28:35;;;;;;;29.60;20.60;;;13.40;99.90;;;;;;5093506;28;20476;-70
2022/04/28 13:31:00;;;;;;;33.13;21.75;;;13.50;99.90;;;;;;5093559;28;20081;-69
2022/04/28 13:33:26;;;;;;;37.70;28.25;;;13.60;99.90;;;;;;5094812;28;20028;-71
2022/04/28 13:35:53;;;;;;;41.08;26.40;;;13.60;99.90;;;;;;5094682;28;20035;-69
2022/04/28 13:38:19;;;;;;;29.17;18.65;;;13.70;99.90;;;;;;5094373;28;20028;-69
2022/04/28 13:40:45;;;;;;;26.60;20.40;;;13.70;99.90;;;;;;5094149;28;20107;-68
2022/04/28 13:43:11;;;;;;;34.20;22.75;;;13.60;99.90;;;;;;5093180;28;20534;-69
2022/04/28 13:45:37;;;;;;;26.92;19.98;;;13.60;99.90;;;;;;5093108;28;20032;-69
2022/04/28 13:48:03;;;;;;;30.83;20.52;;;13.60;99.90;;;;;;5094539;28;20055;-69
2022/04/28 13:50:29;;;;;;;31.42;20.88;;;13.60;99.90;;;;;;5093042;28;20020;-69
2022/04/28 13:52:55;;;;;;;33.22;21.88;;;13.50;99.90;;;;;;5094104;28;20483;-68
2022/04/28 13:55:21;;;;;;;35.22;27.50;;;13.50;99.90;;;;;;5094358;28;20032;-69
2022/04/28 13:57:47;;;;;;;25.65;20.52;;;13.50;99.90;;;;;;5094338;28;20464;-69
2022/04/28 14:00:15;;;;;;;22.75;17.58;;;13.50;99.90;;;;;;5094199;28;20024;-70
2022/04/28 14:02:42;;;;;;;23.73;16.50;;;13.40;99.90;;;;;;5094132;28;20034;-70
2022/04/28 14:05:09;;;;;;;26.08;15.57;;;13.50;99.90;;;;;;5094050;28;20024;-69
2022/04/28 14:07:36;;;;;;;24.17;15.30;;;13.50;99.90;;;;;;5094149;28;20412;-70
2022/04/28 14:10:06;;;;;;;27.75;16.17;;;13.40;99.90;;;;;;5094113;28;20016;-69
2022/04/28 14:12:33;;;;;;;32.10;20.42;;;13.50;99.90;;;;;;5094652;28;20464;-68
2022/04/28 14:14:59;;;;;;;33.72;20.27;;;13.50;99.90;;;;;;5094233;28;20024;-70
2022/04/28 14:17:26;;;;;;;31.67;18.92;;;13.50;99.90;;;;;;5094253;28;20111;-70
2022/04/28 14:19:52;;;;;;;32.95;20.98;;;13.50;99.90;;;;;;5093897;28;20099;-69
2022/04/28 14:22:19;;;;;;;34.80;23.08;;;13.50;99.90;;;;;;5093567;28;20464;-70